Time;durP1;ratioP1;P1;durP2;ratioP2;P2;SDS_P1;SDS_P2;PMS_P1;PMS_P2;Temp;Humidity;BMP_temperature;BMP_pressure;BME280_temperature;BME280_humidity;BME280_pressure;Samples;Min_cycle;Max_cycle;Signal;HPM_P1;HPM_P2
2024/01/08 00:00:29;;;;;;;15.43;8.57;;;;;;;-2.23;85.07;102530.78;5001539;28;20424;-72
2024/01/08 00:02:54;;;;;;;14.68;7.72;;;;;;;-2.29;85.18;102533.47;5014648;28;20030;-73
2024/01/08 00:05:19;;;;;;;15.30;8.02;;;;;;;-2.26;85.50;102537.63;5009599;28;20050;-72
2024/01/08 00:07:45;;;;;;;14.50;7.60;;;;;;;-2.32;85.20;102540.31;5007048;28;20037;-73
2024/01/08 00:10:10;;;;;;;12.30;7.07;;;;;;;-2.32;84.32;102533.50;5005949;28;20034;-72
2024/01/08 00:12:36;;;;;;;16.35;8.27;;;;;;;-2.29;84.23;102543.63;5007926;28;20030;-72
2024/01/08 00:15:02;;;;;;;14.07;7.95;;;;;;;-2.29;84.36;102535.16;5007316;28;20040;-72
2024/01/08 00:17:27;;;;;;;16.05;7.47;;;;;;;-2.37;85.39;102531.06;5007027;28;20106;-73
2024/01/08 00:19:53;;;;;;;16.15;7.45;;;;;;;-2.21;85.09;102541.75;5009860;28;20407;-73
2024/01/08 00:22:18;;;;;;;15.60;7.45;;;;;;;-2.31;86.40;102549.63;5003891;28;20444;-72
2024/01/08 00:24:44;;;;;;;15.25;7.65;;;;;;;-2.39;86.47;102542.16;5005519;28;20088;-73
2024/01/08 00:27:09;;;;;;;13.05;7.05;;;;;;;-2.34;85.36;102547.94;5012065;28;20035;-73
2024/01/08 00:29:35;;;;;;;16.88;7.20;;;;;;;-2.39;84.61;102552.31;5011466;28;20022;-72
2024/01/08 00:32:00;;;;;;;14.43;7.07;;;;;;;-2.32;84.49;102538.59;5022907;28;20025;-73
2024/01/08 00:34:27;;;;;;;12.07;6.28;;;;;;;-2.23;82.38;102538.41;5027396;28;20059;-73
2024/01/08 00:36:53;;;;;;;9.15;5.40;;;;;;;-2.32;81.09;102543.69;5020347;28;20033;-72
2024/01/08 00:39:18;;;;;;;8.05;4.28;;;;;;;-2.40;77.48;102543.00;5027141;28;20040;-72
2024/01/08 00:41:44;;;;;;;10.57;5.38;;;;;;;-2.40;78.68;102537.91;5025227;28;20114;-73
2024/01/08 00:44:09;;;;;;;15.60;4.57;;;;;;;-2.38;79.40;102539.56;5029041;28;20033;-73
2024/01/08 00:46:34;;;;;;;10.27;3.92;;;;;;;-2.29;76.37;102530.91;5029795;28;20041;-73
2024/01/08 00:49:00;;;;;;;8.05;3.78;;;;;;;-2.32;76.27;102537.75;5029958;28;20051;-73
2024/01/08 00:51:25;;;;;;;8.88;3.72;;;;;;;-2.33;75.73;102544.56;5021887;28;20391;-73
2024/01/08 00:53:52;;;;;;;5.75;2.63;;;;;;;-2.38;72.26;102543.81;5026126;28;20029;-72
2024/01/08 00:56:18;;;;;;;5.22;3.05;;;;;;;-2.50;72.94;102532.19;5022777;28;20601;-72
2024/01/08 00:58:44;;;;;;;6.43;2.90;;;;;;;-2.51;73.05;102547.44;5027900;28;20041;-73
2024/01/08 01:01:13;;;;;;;6.32;3.05;;;;;;;-2.51;71.36;102535.56;5026445;28;20105;-72
2024/01/08 01:03:39;;;;;;;6.60;3.60;;;;;;;-2.43;72.48;102535.41;5027546;28;20033;-72
2024/01/08 01:06:05;;;;;;;6.70;3.60;;;;;;;-2.45;71.60;102534.63;5023703;28;20045;-72
2024/01/08 01:08:30;;;;;;;5.43;3.22;;;;;;;-2.46;72.25;102535.50;5010117;28;20650;-73
2024/01/08 01:10:56;;;;;;;9.52;3.60;;;;;;;-2.51;72.87;102540.66;5026877;28;20045;-73
2024/01/08 01:13:22;;;;;;;6.93;2.85;;;;;;;-2.55;73.45;102539.88;5025701;28;20080;-73
2024/01/08 01:15:47;;;;;;;11.18;3.60;;;;;;;-2.42;73.67;102547.28;5025431;28;20499;-72
2024/01/08 01:18:12;;;;;;;6.50;3.58;;;;;;;-2.45;75.20;102552.41;5023687;28;20416;-72
2024/01/08 01:20:38;;;;;;;6.85;3.65;;;;;;;-2.49;75.23;102549.09;5024219;28;20041;-72
2024/01/08 01:23:03;;;;;;;8.38;4.50;;;;;;;-2.45;75.59;102550.72;5024964;28;20021;-72
2024/01/08 01:25:29;;;;;;;8.57;3.80;;;;;;;-2.36;74.24;102559.84;5012864;28;20040;-73
2024/01/08 01:27:54;;;;;;;9.73;4.18;;;;;;;-2.55;76.15;102552.56;5013362;28;20026;-73
2024/01/08 01:30:20;;;;;;;7.65;3.72;;;;;;;-2.51;75.86;102548.28;5023175;28;22287;-73
2024/01/08 01:32:45;;;;;;;9.00;3.83;;;;;;;-2.48;74.80;102562.66;5024933;28;20075;-72
2024/01/08 01:35:11;;;;;;;9.90;4.05;;;;;;;-2.45;74.24;102560.03;5025347;28;20041;-73
2024/01/08 01:37:36;;;;;;;8.15;3.63;;;;;;;-2.54;75.57;102566.13;5022641;28;20033;-73
2024/01/08 01:40:02;;;;;;;9.20;3.78;;;;;;;-2.56;73.73;102562.78;5040339;28;20034;-73
2024/01/08 01:42:28;;;;;;;8.90;5.05;;;;;;;-2.56;75.59;102570.41;5016155;28;20150;-73
2024/01/08 01:44:53;;;;;;;13.10;4.53;;;;;;;-2.52;76.83;102577.09;4993019;28;20033;-72
2024/01/08 01:47:19;;;;;;;8.55;3.80;;;;;;;-2.48;75.04;102572.81;5014159;28;20096;-72
2024/01/08 01:49:45;;;;;;;8.18;4.13;;;;;;;-2.45;75.34;102572.72;5025599;28;20029;-73
2024/01/08 01:52:10;;;;;;;9.13;3.50;;;;;;;-2.42;75.98;102565.06;5023586;28;20535;-72
2024/01/08 01:54:36;;;;;;;8.68;4.72;;;;;;;-2.48;77.60;102577.88;5020787;28;20185;-73
2024/01/08 01:57:03;;;;;;;8.38;4.30;;;;;;;-2.48;77.06;102577.88;5022972;28;20049;-73
2024/01/08 01:59:29;;;;;;;8.80;4.55;;;;;;;-2.48;76.40;102573.63;5012220;28;20132;-73
2024/01/08 02:01:59;;;;;;;10.45;3.97;;;;;;;-2.58;75.48;102572.13;5028899;28;20060;-72
2024/01/08 02:04:28;;;;;;;8.70;4.15;;;;;;;-2.50;76.21;102567.75;5023286;28;20497;-72
2024/01/08 02:06:56;;;;;;;9.00;4.55;;;;;;;-2.48;76.91;102572.81;5015365;28;20052;-73
2024/01/08 02:09:22;;;;;;;9.52;4.57;;;;;;;-2.51;76.43;102573.69;5023614;28;20025;-73
2024/01/08 02:11:48;;;;;;;9.93;4.45;;;;;;;-2.58;76.72;102572.13;5024854;28;20069;-73
2024/01/08 02:14:15;;;;;;;9.48;5.20;;;;;;;-2.59;77.13;102571.28;5023920;28;20028;-73
2024/01/08 02:16:42;;;;;;;15.23;5.03;;;;;;;-2.56;76.91;102581.41;5022626;28;20044;-73
2024/01/08 02:19:08;;;;;;;9.32;4.05;;;;;;;-2.62;76.21;102570.50;5020762;28;20029;-73
2024/01/08 02:21:34;;;;;;;11.50;6.97;;;;;;;-2.59;76.92;102580.63;5021059;28;20041;-73
2024/01/08 02:24:00;;;;;;;9.82;4.63;;;;;;;-2.58;76.53;102578.06;5022010;28;20488;-73
2024/01/08 02:26:26;;;;;;;9.18;4.90;;;;;;;-2.56;78.25;102575.50;5030949;28;20042;-72
2024/01/08 02:28:52;;;;;;;10.95;5.55;;;;;;;-2.61;77.61;102580.63;5024408;28;20026;-72
2024/01/08 02:31:19;;;;;;;15.95;5.45;;;;;;;-2.66;78.80;102590.03;5012022;28;20108;-73
2024/01/08 02:33:45;;;;;;;13.93;5.72;;;;;;;-2.68;78.68;102579.06;5040331;28;20087;-73
2024/01/08 02:36:10;;;;;;;8.27;4.53;;;;;;;-2.63;79.47;102579.00;5025347;28;20029;-73
2024/01/08 02:38:36;;;;;;;11.35;5.70;;;;;;;-2.69;79.25;102572.31;5025310;28;20075;-72
2024/01/08 02:41:01;;;;;;;12.32;5.07;;;;;;;-2.69;80.93;102577.41;5023992;28;20038;-72
2024/01/08 02:43:27;;;;;;;11.68;5.88;;;;;;;-2.80;80.74;102582.66;5026312;28;20038;-73
2024/01/08 02:45:53;;;;;;;10.73;5.30;;;;;;;-2.86;81.37;102584.44;5026880;28;20037;-73
2024/01/08 02:48:18;;;;;;;14.65;5.55;;;;;;;-2.93;82.56;102588.81;5027647;28;20038;-73
2024/01/08 02:50:43;;;;;;;13.32;5.88;;;;;;;-3.00;82.75;102594.84;5029497;28;20030;-73
2024/01/08 02:53:09;;;;;;;11.38;6.30;;;;;;;-2.95;83.61;102586.28;5043536;28;20052;-73
2024/01/08 02:55:34;;;;;;;13.70;6.28;;;;;;;-2.99;83.93;102591.47;5030282;28;20036;-73
2024/01/08 02:58:04;;;;;;;16.27;6.50;;;;;;;-3.00;84.13;102600.75;5026656;28;20034;-73
2024/01/08 03:00:29;;;;;;;14.02;6.63;;;;;;;-2.98;83.11;102601.56;5026413;28;20116;-73
2024/01/08 03:02:55;;;;;;;12.85;6.10;;;;;;;-3.00;84.15;102602.47;5024537;28;20029;-73
2024/01/08 03:05:20;;;;;;;17.92;6.75;;;;;;;-3.09;84.95;102602.59;5023114;28;20383;-73
2024/01/08 03:07:45;;;;;;;10.75;6.10;;;;;;;-3.08;85.83;102609.38;5026907;28;20033;-73
2024/01/08 03:10:11;;;;;;;12.23;6.70;;;;;;;-3.14;87.77;102603.50;5029104;28;20115;-74
2024/01/08 03:12:36;;;;;;;13.18;6.90;;;;;;;-3.06;87.14;102600.03;5027500;28;20029;-73
2024/01/08 03:15:02;;;;;;;14.18;7.13;;;;;;;-3.04;86.60;102599.13;5027502;28;20029;-73
2024/01/08 03:17:27;;;;;;;17.52;7.10;;;;;;;-3.00;86.46;102607.53;5026092;28;20030;-73
2024/01/08 03:19:53;;;;;;;13.90;6.57;;;;;;;-2.99;87.20;102611.78;5026304;28;21382;-73
2024/01/08 03:22:18;;;;;;;14.00;6.60;;;;;;;-3.03;87.28;102615.19;5024304;28;20034;-73
2024/01/08 03:24:44;;;;;;;11.85;6.80;;;;;;;-3.01;87.70;102610.97;5023962;28;20088;-73
2024/01/08 03:27:09;;;;;;;12.18;6.88;;;;;;;-3.02;87.44;102607.56;5023879;28;20034;-73
2024/01/08 03:29:35;;;;;;;15.40;7.13;;;;;;;-2.97;88.05;102615.94;5030427;28;20091;-73
2024/01/08 03:32:01;;;;;;;19.80;8.00;;;;;;;-3.03;88.66;102603.34;5025231;28;20084;-73
2024/01/08 03:34:26;;;;;;;10.88;6.07;;;;;;;-3.06;88.12;102605.09;5027704;28;20575;-73
2024/01/08 03:36:52;;;;;;;14.32;6.57;;;;;;;-3.05;88.32;102607.63;5005510;28;20038;-73
2024/01/08 03:39:17;;;;;;;13.73;6.78;;;;;;;-3.07;88.96;102611.88;5028277;28;20186;-73
2024/01/08 03:41:43;;;;;;;15.75;7.10;;;;;;;-3.02;88.82;102614.34;5027068;28;20143;-73
2024/01/08 03:44:10;;;;;;;16.50;8.05;;;;;;;-2.87;88.57;102616.63;5017494;28;20041;-73
2024/01/08 03:46:36;;;;;;;17.88;7.13;;;;;;;-2.90;87.84;102615.84;5031133;28;20082;-73
2024/01/08 03:49:06;;;;;;;19.45;6.55;;;;;;;-3.00;88.44;102623.59;5030855;28;20029;-73
2024/01/08 03:51:32;;;;;;;13.73;6.55;;;;;;;-2.93;88.60;102611.66;5018634;28;20044;-73
2024/01/08 03:53:58;;;;;;;14.65;6.55;;;;;;;-2.96;89.04;102611.69;5026039;28;20026;-73
2024/01/08 03:56:23;;;;;;;13.38;7.03;;;;;;;-2.94;89.41;102618.44;5023943;28;20033;-73
2024/01/08 03:58:48;;;;;;;17.90;7.47;;;;;;;-2.95;89.81;102618.47;5016380;28;20033;-73
2024/01/08 04:01:14;;;;;;;13.07;7.43;;;;;;;-3.01;89.58;102621.94;5023908;28;20034;-73
2024/01/08 04:03:40;;;;;;;16.88;7.60;;;;;;;-3.09;90.84;102618.66;5010548;28;20078;-73
2024/01/08 04:06:05;;;;;;;13.45;7.00;;;;;;;-3.05;91.08;102606.75;5026138;28;20033;-73
2024/01/08 04:08:31;;;;;;;17.40;7.65;;;;;;;-3.02;91.17;102611.81;5011130;28;20030;-73
2024/01/08 04:10:56;;;;;;;13.88;7.30;;;;;;;-3.03;90.91;102615.19;5018962;28;20511;-73
2024/01/08 04:13:22;;;;;;;17.77;8.30;;;;;;;-3.01;92.03;102621.94;5023236;28;20481;-73
2024/01/08 04:15:47;;;;;;;18.42;8.10;;;;;;;-2.93;91.48;102619.28;5025531;28;20396;-73
2024/01/08 04:18:13;;;;;;;21.20;8.77;;;;;;;-2.91;91.70;102615.00;5025380;28;20029;-73
2024/01/08 04:20:39;;;;;;;16.45;8.30;;;;;;;-2.91;91.65;102621.81;5025864;28;20084;-73
2024/01/08 04:23:05;;;;;;;19.30;8.60;;;;;;;-3.07;92.13;102614.44;5022434;28;20124;-73
2024/01/08 04:25:30;;;;;;;13.93;7.57;;;;;;;-3.01;91.74;102616.88;5025894;28;20038;-73
2024/01/08 04:27:56;;;;;;;16.65;7.72;;;;;;;-3.03;91.64;102625.34;5031282;28;20041;-73
2024/01/08 04:30:21;;;;;;;18.67;7.97;;;;;;;-3.00;92.41;102623.59;5025355;28;20060;-73
2024/01/08 04:32:47;;;;;;;17.58;8.05;;;;;;;-2.98;92.27;102624.41;5030060;28;20029;-73
2024/01/08 04:35:12;;;;;;;14.02;7.10;;;;;;;-3.01;92.78;102611.78;5025382;28;20087;-72
2024/01/08 04:37:38;;;;;;;17.52;8.10;;;;;;;-3.01;92.40;102613.50;5027383;28;20053;-72
2024/01/08 04:40:03;;;;;;;21.30;8.98;;;;;;;-2.97;92.69;102617.66;5024028;28;20515;-73
2024/01/08 04:42:29;;;;;;;15.32;8.30;;;;;;;-3.02;92.52;102617.72;5028341;28;20037;-73
2024/01/08 04:44:55;;;;;;;14.05;7.93;;;;;;;-2.96;92.93;102616.78;5028641;28;20029;-73
2024/01/08 04:47:20;;;;;;;15.75;8.32;;;;;;;-2.97;93.63;102627.81;5026725;28;20073;-73
2024/01/08 04:49:46;;;;;;;14.20;7.85;;;;;;;-2.98;93.41;102624.41;5009395;28;20498;-73
2024/01/08 04:52:11;;;;;;;23.88;8.43;;;;;;;-2.96;93.85;102614.25;5016943;28;20403;-73
2024/01/08 04:54:37;;;;;;;13.15;7.53;;;;;;;-3.01;94.19;102609.25;5023732;28;20495;-73
2024/01/08 04:57:02;;;;;;;22.77;8.10;;;;;;;-2.90;94.68;102609.09;5016586;28;20041;-73
2024/01/08 04:59:28;;;;;;;19.70;8.82;;;;;;;-2.92;94.43;102620.94;5022300;28;20087;-74
2024/01/08 05:01:53;;;;;;;17.50;8.60;;;;;;;-2.99;92.93;102615.13;5018622;28;20041;-73
2024/01/08 05:04:19;;;;;;;18.05;8.20;;;;;;;-3.06;93.74;102603.41;5027078;28;20488;-73
2024/01/08 05:06:44;;;;;;;18.13;9.32;;;;;;;-3.08;94.78;102611.91;5025437;28;20388;-73
2024/01/08 05:09:10;;;;;;;20.05;8.57;;;;;;;-3.08;94.61;102601.75;5026506;28;20031;-73
2024/01/08 05:11:36;;;;;;;20.45;9.20;;;;;;;-3.09;94.98;102603.44;5026304;28;20565;-73
2024/01/08 05:14:05;;;;;;;17.45;9.00;;;;;;;-3.07;95.64;102609.34;5026677;28;20029;-73
2024/01/08 05:16:32;;;;;;;16.98;8.85;;;;;;;-3.04;95.90;102606.75;5026989;28;20076;-73
2024/01/08 05:18:57;;;;;;;16.27;8.52;;;;;;;-2.96;96.12;102607.47;5028121;28;20480;-73
2024/01/08 05:21:23;;;;;;;15.85;8.48;;;;;;;-2.84;95.46;102605.59;5025159;28;20037;-73
2024/01/08 05:23:48;;;;;;;19.27;8.68;;;;;;;-2.80;95.29;102607.22;5006841;28;20029;-73
2024/01/08 05:26:14;;;;;;;15.70;8.40;;;;;;;-2.91;95.00;102607.41;5022335;28;20057;-73
2024/01/08 05:28:39;;;;;;;17.25;8.90;;;;;;;-2.95;94.79;102605.78;5030914;28;20032;-73
2024/01/08 05:31:05;;;;;;;17.33;9.45;;;;;;;-3.02;96.32;102612.63;5027815;28;20377;-73
2024/01/08 05:33:31;;;;;;;18.00;9.45;;;;;;;-2.88;95.85;102614.13;5027232;28;20022;-73
2024/01/08 05:35:56;;;;;;;16.75;8.45;;;;;;;-2.97;95.95;102615.13;5026882;28;20052;-73
2024/01/08 05:38:22;;;;;;;19.98;9.38;;;;;;;-2.98;96.36;102609.19;5025799;28;20104;-73
2024/01/08 05:40:49;;;;;;;19.67;9.98;;;;;;;-2.88;96.02;102602.28;5017700;28;20075;-73
2024/01/08 05:43:15;;;;;;;18.45;9.93;;;;;;;-2.88;95.37;102603.97;5026777;28;20476;-73
2024/01/08 05:45:41;;;;;;;21.48;8.85;;;;;;;-2.95;95.34;102604.06;5027687;28;20034;-73
2024/01/08 05:48:07;;;;;;;18.13;8.90;;;;;;;-2.96;95.96;102602.41;5027282;28;20048;-73
2024/01/08 05:50:32;;;;;;;20.08;9.32;;;;;;;-2.94;96.11;102597.28;5022738;28;20503;-73
2024/01/08 05:52:59;;;;;;;17.65;9.48;;;;;;;-2.92;96.10;102603.16;5022583;28;20033;-73
2024/01/08 05:55:24;;;;;;;22.73;9.85;;;;;;;-2.90;96.19;102598.06;5023342;28;20110;-73
2024/01/08 05:57:50;;;;;;;19.67;8.98;;;;;;;-2.95;96.29;102604.06;5024870;28;20034;-73
2024/01/08 06:00:16;;;;;;;29.80;10.38;;;;;;;-2.90;96.13;102603.16;5010048;28;20404;-73
2024/01/08 06:02:42;;;;;;;19.02;9.60;;;;;;;-2.98;96.03;102600.72;5039983;28;20715;-73
2024/01/08 06:05:08;;;;;;;20.00;9.50;;;;;;;-2.93;96.27;102606.59;5022352;28;20041;-73
2024/01/08 06:07:34;;;;;;;20.30;9.75;;;;;;;-2.90;96.52;102596.38;5023021;28;20092;-72
2024/01/08 06:09:59;;;;;;;17.50;9.30;;;;;;;-2.90;96.20;102598.06;5024548;28;20069;-73
2024/01/08 06:12:25;;;;;;;17.95;9.25;;;;;;;-2.95;96.46;102604.06;5027580;28;20033;-73
2024/01/08 06:14:50;;;;;;;21.35;9.25;;;;;;;-2.91;96.94;102604.84;5031398;28;20395;-73
2024/01/08 06:17:17;;;;;;;18.60;8.95;;;;;;;-2.89;96.56;102602.28;5025322;28;20029;-73
2024/01/08 06:19:43;;;;;;;24.27;9.30;;;;;;;-2.80;96.12;102597.06;5028819;28;20029;-73
2024/01/08 06:22:08;;;;;;;19.75;9.40;;;;;;;-2.72;95.13;102607.09;5036726;28;20037;-72
2024/01/08 06:24:34;;;;;;;23.60;10.63;;;;;;;-2.85;95.26;102593.75;5024141;28;20060;-73
2024/01/08 06:26:59;;;;;;;21.85;9.70;;;;;;;-2.84;96.25;102592.91;5025244;28;20034;-73
2024/01/08 06:29:25;;;;;;;19.40;8.70;;;;;;;-2.78;95.83;102606.31;5027670;28;20033;-72
2024/01/08 06:31:50;;;;;;;15.57;8.48;;;;;;;-2.80;94.09;102607.22;5024190;28;20040;-72
2024/01/08 06:34:16;;;;;;;18.83;9.75;;;;;;;-2.85;92.90;102603.91;5025458;28;20030;-73
2024/01/08 06:36:41;;;;;;;20.27;9.82;;;;;;;-2.74;94.19;102602.88;5021667;28;20041;-73
2024/01/08 06:39:10;;;;;;;18.50;9.05;;;;;;;-2.81;95.14;102608.06;5029609;28;20025;-73
2024/01/08 06:41:36;;;;;;;20.25;9.35;;;;;;;-2.84;95.75;102598.81;5024683;28;20556;-72
2024/01/08 06:44:02;;;;;;;19.40;10.00;;;;;;;-2.74;94.65;102589.34;5027141;28;20092;-73
2024/01/08 06:46:28;;;;;;;17.83;9.45;;;;;;;-2.79;94.96;102603.81;5025794;28;20038;-71
2024/01/08 06:48:53;;;;;;;20.20;9.23;;;;;;;-2.74;94.33;102602.03;5026700;28;20048;-72
2024/01/08 06:51:19;;;;;;;21.60;9.25;;;;;;;-2.71;92.96;102606.22;5024006;28;20522;-72
2024/01/08 06:53:45;;;;;;;16.17;8.70;;;;;;;-2.77;92.34;102597.00;5041568;28;20026;-73
2024/01/08 06:56:11;;;;;;;17.10;9.70;;;;;;;-2.77;93.22;102597.84;5032781;28;20037;-72
2024/01/08 06:58:37;;;;;;;18.45;8.85;;;;;;;-2.77;93.09;102604.63;5023934;28;20080;-73
2024/01/08 07:01:03;;;;;;;16.77;9.32;;;;;;;-2.70;93.14;102596.03;5027051;28;20042;-72
2024/01/08 07:03:28;;;;;;;17.23;8.95;;;;;;;-2.70;93.52;102610.44;5025475;28;20389;-73
2024/01/08 07:05:53;;;;;;;22.77;9.57;;;;;;;-2.72;93.98;102607.94;5025297;28;20399;-73
2024/01/08 07:08:19;;;;;;;17.10;8.77;;;;;;;-2.65;92.55;102606.13;5022008;28;20444;-73
2024/01/08 07:10:44;;;;;;;24.80;9.40;;;;;;;-2.61;92.72;102613.66;5024946;28;20041;-73
2024/01/08 07:13:10;;;;;;;19.98;9.13;;;;;;;-2.64;92.35;102612.88;5027779;28;20022;-73
2024/01/08 07:15:36;;;;;;;17.77;9.20;;;;;;;-2.66;90.28;102617.16;5025324;28;20037;-73
2024/01/08 07:18:01;;;;;;;14.55;7.43;;;;;;;-2.55;89.03;102607.63;5029350;28;20029;-73
2024/01/08 07:20:28;;;;;;;15.52;8.15;;;;;;;-2.66;88.50;102609.53;5023339;28;20120;-72
2024/01/08 07:22:53;;;;;;;14.52;7.90;;;;;;;-2.63;89.49;102623.00;5022000;28;20117;-73
2024/01/08 07:25:19;;;;;;;20.10;7.85;;;;;;;-2.69;88.55;102619.72;5021652;28;20041;-72
2024/01/08 07:27:44;;;;;;;21.08;7.65;;;;;;;-2.63;88.28;102620.47;5027493;28;20037;-72
2024/01/08 07:30:11;;;;;;;17.75;8.32;;;;;;;-2.61;89.37;102626.34;5025995;28;20033;-72
2024/01/08 07:32:36;;;;;;;19.23;8.65;;;;;;;-2.67;89.81;102616.31;5024272;28;20033;-72
2024/01/08 07:35:02;;;;;;;12.35;6.93;;;;;;;-2.58;87.90;102616.16;5010210;28;20139;-72
2024/01/08 07:37:28;;;;;;;15.55;7.90;;;;;;;-2.62;89.86;102616.22;5042298;28;20037;-73
2024/01/08 07:39:53;;;;;;;78.47;30.70;;;;;;;-2.57;90.46;102620.34;5029863;28;20037;-73
2024/01/08 07:42:18;;;;;;;14.68;7.68;;;;;;;-2.58;89.05;102616.16;5025627;28;20042;-72
2024/01/08 07:44:44;;;;;;;16.73;7.35;;;;;;;-2.58;88.07;102615.28;5030828;28;20036;-72
2024/01/08 07:47:09;;;;;;;15.85;6.85;;;;;;;-2.61;88.29;102628.06;5026149;28;20048;-72
2024/01/08 07:49:37;;;;;;;17.60;7.32;;;;;;;-2.58;88.64;102628.00;5017495;28;20044;-72
2024/01/08 07:52:02;;;;;;;16.95;7.43;;;;;;;-2.64;89.25;102636.56;5023475;28;20108;-73
2024/01/08 07:54:28;;;;;;;16.73;8.23;;;;;;;-2.56;88.84;102626.31;5024840;28;20037;-72
2024/01/08 07:56:53;;;;;;;14.55;7.20;;;;;;;-2.55;90.20;102633.88;5019981;28;20048;-72
2024/01/08 07:59:19;;;;;;;17.85;7.65;;;;;;;-2.60;91.63;102629.72;5026997;28;20125;-72
2024/01/08 08:01:44;;;;;;;15.07;7.47;;;;;;;-2.57;90.34;102619.53;5010289;28;20041;-72
2024/01/08 08:04:09;;;;;;;15.50;7.60;;;;;;;-2.64;90.03;102626.41;5025689;28;20034;-72
2024/01/08 08:06:35;;;;;;;13.38;7.15;;;;;;;-2.55;91.29;102623.72;5010096;28;20052;-72
2024/01/08 08:09:01;;;;;;;14.75;6.70;;;;;;;-2.60;89.83;102628.06;5013050;28;20040;-72
2024/01/08 08:11:27;;;;;;;15.52;6.95;;;;;;;-2.54;88.88;102627.09;5021683;28;20087;-72
2024/01/08 08:13:53;;;;;;;15.18;7.40;;;;;;;-2.59;89.74;102631.41;5036234;28;20049;-72
2024/01/08 08:16:18;;;;;;;13.52;6.93;;;;;;;-2.55;87.89;102627.97;5028725;28;20128;-72
2024/01/08 08:18:45;;;;;;;15.88;6.63;;;;;;;-2.48;87.30;102631.25;5029966;28;20463;-71
2024/01/08 08:21:10;;;;;;;13.90;6.53;;;;;;;-2.51;87.40;102623.66;5028093;28;20128;-72
2024/01/08 08:23:36;;;;;;;18.92;7.30;;;;;;;-2.50;87.18;102645.69;5024600;28;20037;-72
2024/01/08 08:26:02;;;;;;;15.65;7.22;;;;;;;-2.48;87.55;102636.31;5018651;28;20435;-72
2024/01/08 08:28:29;;;;;;;17.42;7.45;;;;;;;-2.56;88.04;102644.91;5024158;28;20071;-72
2024/01/08 08:30:54;;;;;;;16.02;7.10;;;;;;;-2.47;88.72;102640.53;5012537;28;20030;-72
2024/01/08 08:33:20;;;;;;;17.45;7.32;;;;;;;-2.48;89.39;102647.31;5025407;28;20423;-72
2024/01/08 08:35:45;;;;;;;22.63;7.60;;;;;;;-2.44;89.72;102651.47;5010352;28;20406;-72
2024/01/08 08:38:11;;;;;;;16.02;8.18;;;;;;;-2.43;89.10;102652.31;5027115;28;20038;-72
2024/01/08 08:40:36;;;;;;;16.10;7.82;;;;;;;-2.43;89.98;102663.34;5014875;28;20045;-72
2024/01/08 08:43:02;;;;;;;20.00;8.25;;;;;;;-2.46;90.31;102660.00;5024225;28;20032;-72
2024/01/08 08:45:28;;;;;;;20.08;9.18;;;;;;;-2.46;91.05;102667.63;5025274;28;20090;-72
2024/01/08 08:47:53;;;;;;;16.33;7.78;;;;;;;-2.51;90.81;102662.59;5027632;28;20055;-72
2024/01/08 08:50:19;;;;;;;19.20;8.30;;;;;;;-2.49;92.24;102670.22;5024350;28;20092;-72
2024/01/08 08:52:45;;;;;;;19.30;9.00;;;;;;;-2.47;92.79;102664.22;5025244;28;20026;-72
2024/01/08 08:55:10;;;;;;;22.60;8.60;;;;;;;-2.43;93.51;102667.56;5023926;28;20041;-72
2024/01/08 08:57:36;;;;;;;19.10;8.00;;;;;;;-2.32;92.48;102672.47;5025956;28;20033;-72
2024/01/08 09:00:02;;;;;;;18.48;8.43;;;;;;;-2.45;91.74;102664.19;5030947;28;20041;-72
2024/01/08 09:02:28;;;;;;;16.48;8.45;;;;;;;-2.42;90.89;102676.88;5024627;28;20116;-72
2024/01/08 09:04:53;;;;;;;18.85;8.40;;;;;;;-2.43;91.96;102672.63;5031309;28;20024;-72
2024/01/08 09:07:22;;;;;;;18.38;9.02;;;;;;;-2.47;92.27;102681.19;5045632;28;20057;-71
2024/01/08 09:09:49;;;;;;;20.80;8.70;;;;;;;-2.42;90.46;102667.53;5026159;28;20029;-72
2024/01/08 09:12:15;;;;;;;12.93;7.22;;;;;;;-2.39;91.02;102674.28;5023941;28;20040;-72
2024/01/08 09:14:41;;;;;;;15.88;7.82;;;;;;;-2.40;91.98;102677.69;5025042;28;20040;-72
2024/01/08 09:17:06;;;;;;;15.32;7.90;;;;;;;-2.37;91.83;102675.09;5013344;28;20037;-71
2024/01/08 09:19:32;;;;;;;16.73;7.57;;;;;;;-2.41;92.03;102678.53;5039090;28;20088;-72
2024/01/08 09:21:59;;;;;;;13.27;7.72;;;;;;;-2.28;91.58;102680.03;5010238;28;20523;-72
2024/01/08 09:24:24;;;;;;;18.52;8.23;;;;;;;-2.28;92.73;102685.09;5035137;28;20082;-72
2024/01/08 09:26:50;;;;;;;18.55;9.23;;;;;;;-2.32;93.82;102677.53;5024350;28;20041;-72
2024/01/08 09:29:15;;;;;;;18.98;8.68;;;;;;;-2.38;93.99;102681.84;5028854;28;20029;-72
2024/01/08 09:31:40;;;;;;;21.38;9.93;;;;;;;-2.28;94.82;102690.19;5005753;28;20045;-72
2024/01/08 09:34:06;;;;;;;36.88;16.65;;;;;;;-2.27;95.84;102694.38;5030783;28;20026;-72
2024/01/08 09:36:31;;;;;;;19.15;9.65;;;;;;;-2.31;95.58;102685.13;5027992;28;20034;-71
2024/01/08 09:38:57;;;;;;;22.92;10.52;;;;;;;-2.31;95.66;102686.84;5029093;28;20034;-71
2024/01/08 09:41:22;;;;;;;25.10;12.88;;;;;;;-2.31;95.93;102687.69;5026054;28;20038;-71
2024/01/08 09:43:48;;;;;;;18.95;10.98;;;;;;;-2.32;95.71;102680.91;5025646;28;20055;-72
2024/01/08 09:46:27;;;;;;;23.38;10.88;;;;;;;-2.25;95.81;102684.19;5008817;28;20046;-71
2024/01/08 09:48:54;;;;;;;17.25;9.00;;;;;;;-2.34;94.56;102692.81;5026839;28;20391;-72
2024/01/08 09:51:21;;;;;;;19.42;10.00;;;;;;;-2.38;96.03;102681.03;5013988;28;20463;-71
2024/01/08 09:53:46;;;;;;;21.75;9.50;;;;;;;-2.36;95.69;102689.47;5024242;28;20083;-72
2024/01/08 09:56:15;;;;;;;25.45;12.43;;;;;;;-2.27;96.54;102691.84;5018681;28;20049;-72
2024/01/08 09:58:42;;;;;;;17.20;8.40;;;;;;;-2.29;95.58;102693.56;5025931;28;20033;-71
2024/01/08 10:01:07;;;;;;;17.73;9.77;;;;;;;-2.33;96.20;102702.13;5016677;28;20604;-72
2024/01/08 10:03:33;;;;;;;23.58;10.20;;;;;;;-2.40;96.68;102688.66;5024914;28;20038;-73
2024/01/08 10:06:04;;;;;;;21.98;9.80;;;;;;;-2.30;96.55;102688.50;5037851;28;20042;-72
2024/01/08 10:08:31;;;;;;;24.27;11.30;;;;;;;-2.33;95.89;102680.97;5023828;28;20037;-72
2024/01/08 10:10:57;;;;;;;23.35;11.63;;;;;;;-2.26;96.15;102673.19;5041364;28;20037;-72
2024/01/08 10:13:22;;;;;;;18.23;9.32;;;;;;;-2.22;92.36;102679.91;5022790;28;20360;-72
2024/01/08 10:15:48;;;;;;;19.73;9.38;;;;;;;-2.17;90.57;102675.56;5023458;28;20322;-71
2024/01/08 10:18:17;;;;;;;18.35;7.22;;;;;;;-2.09;89.51;102685.59;5034427;28;20037;-72
2024/01/08 10:20:44;;;;;;;15.93;6.35;;;;;;;-2.15;83.85;102685.69;5030333;28;20049;-72
2024/01/08 10:23:10;;;;;;;15.75;6.35;;;;;;;-2.13;80.01;102670.41;5027503;28;20513;-72
2024/01/08 10:25:38;;;;;;;14.05;4.85;;;;;;;-2.18;75.07;102675.59;5032004;28;20034;-72
2024/01/08 10:28:10;;;;;;;10.93;5.10;;;;;;;-2.06;73.70;102674.53;5024978;28;20033;-72
2024/01/08 10:30:36;;;;;;;11.70;4.80;;;;;;;-2.13;71.40;102673.78;5030632;28;20123;-71
2024/01/08 10:33:01;;;;;;;10.63;5.32;;;;;;;-2.16;69.91;102661.97;5026090;28;20076;-72
2024/01/08 10:35:30;;;;;;;8.88;4.97;;;;;;;-2.18;70.31;102665.44;5023475;28;20044;-71
2024/01/08 10:37:58;;;;;;;15.30;4.90;;;;;;;-2.16;69.81;102673.88;5025292;28;20037;-72
2024/01/08 10:40:24;;;;;;;17.55;4.68;;;;;;;-2.24;68.53;102662.97;5025969;28;20400;-72
2024/01/08 10:42:50;;;;;;;12.65;5.10;;;;;;;-2.21;69.36;102668.03;5018463;28;20026;-72
2024/01/08 10:45:15;;;;;;;9.52;4.88;;;;;;;-2.27;69.38;102663.06;5024790;28;20025;-71
2024/01/08 10:47:50;;;;;;;11.48;4.93;;;;;;;-2.30;69.81;102658.00;5026015;28;20549;-72
2024/01/08 10:50:19;;;;;;;11.75;4.53;;;;;;;-2.27;69.05;102661.34;5021888;28;20029;-72
2024/01/08 10:52:54;;;;;;;12.27;6.03;;;;;;;-2.27;69.72;102661.34;5025333;28;20068;-72
2024/01/08 10:55:21;;;;;;;12.30;5.25;;;;;;;-2.19;70.29;102656.94;5025704;28;20041;-72
2024/01/08 10:57:58;;;;;;;9.63;4.38;;;;;;;-2.21;69.41;102653.59;5022812;28;20026;-72
2024/01/08 11:00:24;;;;;;;12.23;5.13;;;;;;;-2.12;68.41;102656.84;5026043;28;20049;-73
2024/01/08 11:02:51;;;;;;;9.57;4.82;;;;;;;-2.19;66.13;102662.03;5026711;28;20037;-71
2024/01/08 11:05:19;;;;;;;9.35;4.75;;;;;;;-2.08;66.30;102654.22;5011451;28;20416;-72
2024/01/08 11:07:47;;;;;;;18.35;6.55;;;;;;;-2.07;68.15;102648.28;5026649;28;20033;-72
2024/01/08 11:10:14;;;;;;;11.02;4.60;;;;;;;-1.94;66.71;102661.59;5025169;28;20108;-73